Murrieta, CA (92563)

5:04 PM PDT on August 30, 2014 (GMT -0700)
Murrieta Neighborhood Weather Watcher | Change Station
CLOSE
Current Station
Personal Weather Station
Location: Murrieta, CA
Elevation: 1280 ft
Nearby Weather Stations

Elev 1280 ft 33.58 °N, 117.20 °W | Updated 1 second ago

Clear
Clear
93.8 °F
Feels Like 91 °F
N
0.0
Wind Variable Wind from South
Gusts 8.0 mph

Today
High -- | Low -- °F
--% Chance of Precip.
Yesterday
High -- | Low -- °F
Precip. -- in
6:21 AM 7:16 PM
Waxing Crescent, 25% visible
Pressure 29.78 in
Visibility 10.0 miles
Clouds Clear
Heat Index 91 °F
Dew Point 52 °F
Humidity 24%
Rainfall 0.00 in
Snow Depth Not available.
UV 1.5 out of 12
Pollen 8.10 out of 12
Ozone Moderate
PM2.5 Good
Flu Activity Not available.
METAR KF70 302355Z AUTO 22011KT 10SM CLR 35/08 A2978 RMK AO1

More Conditions Fewer Conditions

Pressure 29.78 in
Visibility 10.0 miles
Clouds Clear
Heat Index 91 °F
Dew Point 52 °F
Humidity 24%
Rainfall 0.00 in
Snow Depth Not available.
UV 1.5 out of 12
Pollen 8.10 out of 12
Ozone Moderate
PM2.5 Good
Flu Activity Not available.
METAR KF70 302355Z AUTO 22011KT 10SM CLR 35/08 A2978 RMK AO1

More Conditions Fewer Conditions

10-Day Weather Forecast

Almanac

Astronomy

Aug. 30, 2014 Rise Set
Actual Time 6:21 AM PDT 7:16 PM PDT
Civil Twilight 5:55 AM PDT 7:41 PM PDT
Nautical Twilight 5:25 AM PDT 8:12 PM PDT
Astronomical Twilight 4:54 AM PDT 8:42 PM PDT
Moon 10:57 AM PDT (8/30) 10:10 PM PDT (8/30)
Length of Visible Light 13h 46m
Length of Day
12h 55m
Tomorrow will be 1m 58s shorter.
Waxing Crescent, 25% of the Moon is Illuminated
Today
Waxing Crescent
Sep 2
First Quarter
Sep 8
Full
Sep 15
Last Quarter
Sep 24
New

Today's Extremes

State Highs State Lows

Community

WunderPhotos

Upload Photos

1,748,696 photos uploaded!

Nearby

Air Quality

  Air Quality AQ Index Pollutant
Yesterday Good
OZONE
Yesterday Good
PM2.5
Current Moderate
OZONE
Current Good
PM2.5
Sunday Moderate
OZONE
Sunday Good
PM10
Sunday Good
CO
Sunday Good
NO2

Snow Depth

Station Depth Elevation
Leavitt Meadows 0 in 7200 ft
Summit Meadow 0 in 9122 ft
Tahoe City Cross 0 in 6750 ft
CSS Lab 0 in 6900 ft
Adin Mountain 0 in 6200 ft

Earthquake Activity

City Distance Mag. Time & Date
Malibu, California 111 miles 2.5 8:11 AM PDT
2014-08-30
Minimum magnitude displayed is 2.5.

Coastal Water Temperatures

Place Temperature
La Jolla, CA 73.9 °F
San Diego, CA 75.0 °F

Nearby Weather Stations